Time;durP1;ratioP1;P1;durP2;ratioP2;P2;SDS_P1;SDS_P2;PMS_P1;PMS_P2;Temp;Humidity;BMP_temperature;BMP_pressure;BME280_temperature;BME280_humidity;BME280_pressure;Samples;Min_cycle;Max_cycle;Signal;HPM_P1;HPM_P2
2023/06/01 00:00:15;;;;;;;9.15;4.28;;;;;;;17.88;96.78;100441.19;4879167;29;20081;-66
2023/06/01 00:02:41;;;;;;;9.07;4.00;;;;;;;17.84;97.42;100438.53;4896049;29;20032;-68
2023/06/01 00:05:07;;;;;;;7.60;3.78;;;;;;;17.86;96.73;100437.69;4896330;29;20036;-68
2023/06/01 00:07:32;;;;;;;8.85;3.95;;;;;;;17.88;96.25;100443.81;4895999;29;20108;-69
2023/06/01 00:10:00;;;;;;;6.97;3.88;;;;;;;18.31;95.58;100511.13;4896057;29;20052;-68
2023/06/01 00:12:25;;;;;;;6.70;3.90;;;;;;;18.21;95.57;100511.97;4896037;29;20033;-68
2023/06/01 00:14:51;;;;;;;8.98;3.83;;;;;;;18.21;94.85;100497.13;4895660;29;20063;-69
2023/06/01 00:17:16;;;;;;;7.00;3.88;;;;;;;18.38;94.89;100512.03;4895797;29;20187;-66
2023/06/01 00:19:44;;;;;;;7.20;4.00;;;;;;;18.44;93.74;100509.47;4895823;29;20032;-68
2023/06/01 00:22:10;;;;;;;7.78;4.35;;;;;;;18.27;94.41;100505.03;4895819;29;20071;-67
2023/06/01 00:24:36;;;;;;;9.90;4.95;;;;;;;18.11;94.92;100496.22;4895566;29;20128;-66
2023/06/01 00:27:02;;;;;;;12.43;5.65;;;;;;;18.22;94.88;100514.56;4895500;29;20071;-67
2023/06/01 00:29:28;;;;;;;9.77;4.93;;;;;;;17.84;95.25;100465.50;4895219;29;20060;-67
2023/06/01 00:31:54;;;;;;;9.45;4.38;;;;;;;18.12;94.50;100518.00;4895036;29;20526;-68
2023/06/01 00:34:19;;;;;;;8.32;4.53;;;;;;;18.20;94.47;100521.50;4895764;29;20059;-67
2023/06/01 00:36:45;;;;;;;6.32;4.20;;;;;;;17.71;93.26;100461.94;4895755;29;20032;-68
2023/06/01 00:39:10;;;;;;;8.70;4.57;;;;;;;17.65;94.87;100481.94;4895457;29;20464;-66
2023/06/01 00:41:36;;;;;;;9.43;4.30;;;;;;;17.87;95.20;100533.47;4895731;29;20040;-68
2023/06/01 00:44:01;;;;;;;7.20;4.00;;;;;;;17.43;95.36;100463.47;4895213;29;20052;-68
2023/06/01 00:46:29;;;;;;;8.05;4.68;;;;;;;17.77;95.47;100521.19;4895536;29;20021;-73
2023/06/01 00:48:55;;;;;;;7.68;4.80;;;;;;;17.73;96.33;100535.06;4895223;29;20116;-69
2023/06/01 00:51:21;;;;;;;7.47;4.60;;;;;;;17.70;96.50;100527.22;4895283;29;20611;-68
2023/06/01 00:53:46;;;;;;;12.30;5.07;;;;;;;17.59;95.98;100511.44;4895465;29;20033;-67
2023/06/01 00:56:12;;;;;;;13.10;5.93;;;;;;;17.62;96.42;100525.41;4895250;29;20033;-67
2023/06/01 00:58:39;;;;;;;9.48;5.45;;;;;;;17.48;97.23;100524.41;4905029;29;20131;-68
2023/06/01 01:01:05;;;;;;;12.38;6.75;;;;;;;17.45;97.58;100530.47;4913954;29;20024;-71
2023/06/01 01:03:31;;;;;;;11.88;5.30;;;;;;;17.48;97.49;100529.63;4917066;29;20054;-70
2023/06/01 01:06:28;;;;;;;16.58;5.97;;;;;;;17.56;97.64;100520.13;4916182;29;20509;-68
2023/06/01 01:09:31;;;;;;;14.18;5.95;;;;;;;17.32;99.00;100530.34;4898758;29;20056;-68
2023/06/01 01:12:12;;;;;;;10.48;4.90;;;;;;;17.41;99.25;100530.44;4933007;29;20042;-67
2023/06/01 01:14:50;;;;;;;9.15;5.50;;;;;;;17.36;98.21;100504.28;4932812;29;20509;-68
2023/06/01 01:17:24;;;;;;;13.20;5.28;;;;;;;17.61;97.73;100531.50;4914770;29;20111;-69
2023/06/01 01:20:08;;;;;;;10.00;5.22;;;;;;;17.67;96.25;100532.41;4933008;29;20083;-68
2023/06/01 01:23:24;;;;;;;9.45;5.35;;;;;;;17.44;97.09;100533.94;4932910;29;20042;-68
2023/06/01 01:26:05;;;;;;;8.55;4.53;;;;;;;17.29;97.91;100550.31;4855343;29;20050;-68
2023/06/01 01:28:40;;;;;;;9.45;4.53;;;;;;;17.03;97.76;100536.13;4840045;29;20085;-67
2023/06/01 01:31:11;;;;;;;9.68;4.88;;;;;;;16.93;99.38;100535.13;4839564;29;20077;-68
2023/06/01 01:33:37;;;;;;;10.48;4.85;;;;;;;16.94;99.00;100532.53;4836967;29;20045;-70
2023/06/01 01:36:05;;;;;;;9.10;5.00;;;;;;;16.87;98.58;100509.81;4836767;29;20057;-70
2023/06/01 01:38:33;;;;;;;7.82;4.72;;;;;;;16.92;97.78;100509.91;4836825;29;20061;-67
2023/06/01 01:40:59;;;;;;;8.52;4.57;;;;;;;17.06;96.76;100515.28;4837139;29;20178;-68
2023/06/01 01:43:25;;;;;;;12.32;4.57;;;;;;;17.06;96.64;100517.88;4840498;29;20125;-67
2023/06/01 01:46:41;;;;;;;7.32;4.70;;;;;;;17.03;97.01;100518.72;4821957;29;20467;-67
2023/06/01 01:49:20;;;;;;;11.60;4.50;;;;;;;16.91;97.97;100532.50;4821858;29;20046;-70
2023/06/01 01:51:57;;;;;;;11.98;4.72;;;;;;;16.82;98.72;100517.59;4830092;29;20525;-76
2023/06/01 01:54:25;;;;;;;11.43;5.30;;;;;;;16.78;98.71;100509.72;4840741;29;20041;-68
2023/06/01 01:56:53;;;;;;;10.15;4.93;;;;;;;16.81;98.78;100520.19;4839998;29;20110;-68
2023/06/01 01:59:19;;;;;;;12.10;4.90;;;;;;;16.84;98.83;100533.25;4840383;29;20037;-69
2023/06/01 02:01:46;;;;;;;9.70;4.68;;;;;;;16.79;98.76;100524.50;4857729;29;20572;-68
2023/06/01 02:04:12;;;;;;;12.85;4.78;;;;;;;16.79;100.00;100530.59;4895836;29;20060;-73
2023/06/01 02:06:37;;;;;;;8.32;4.68;;;;;;;16.73;100.00;100514.00;4895633;29;20059;-72
2023/06/01 02:09:07;;;;;;;9.88;4.78;;;;;;;16.92;100.00;100528.16;4895559;29;20618;-69
2023/06/01 02:11:32;;;;;;;;;;;;;;;17.00;100.00;100536.06;4896199;29;20116;-68
2023/06/01 02:13:58;;;;;;;9.57;4.43;;;;;;;17.08;100.00;100540.50;4895781;29;20310;-67
2023/06/01 02:16:23;;;;;;;8.00;3.90;;;;;;;17.06;100.00;100525.69;4896049;29;20036;-68
2023/06/01 02:18:50;;;;;;;14.50;4.60;;;;;;;17.22;100.00;100542.41;4897964;29;20054;-68
2023/06/01 02:21:15;;;;;;;9.85;5.18;;;;;;;17.26;99.21;100552.03;4898195;29;20032;-68
2023/06/01 02:23:42;;;;;;;13.10;4.97;;;;;;;16.99;99.06;100530.00;4898122;29;20460;-67
2023/06/01 02:26:10;;;;;;;9.50;4.18;;;;;;;16.43;100.00;100544.88;4897916;29;20071;-66
2023/06/01 02:28:38;;;;;;;8.80;4.30;;;;;;;16.42;100.00;100542.25;4898047;29;20043;-68
2023/06/01 02:31:04;;;;;;;8.23;3.80;;;;;;;16.15;100.00;100547.09;4897718;29;20414;-72
2023/06/01 02:33:29;;;;;;;11.73;4.57;;;;;;;15.62;100.00;100558.31;4897797;29;20111;-69
2023/06/01 02:35:55;;;;;;;6.35;4.00;;;;;;;15.80;100.00;100546.47;4897651;29;20039;-67
2023/06/01 02:38:20;;;;;;;9.50;4.00;;;;;;;15.95;100.00;100557.19;4897594;29;20115;-68
2023/06/01 02:40:45;;;;;;;8.82;3.88;;;;;;;15.94;100.00;100555.44;4897528;29;20059;-67
2023/06/01 02:43:11;;;;;;;7.88;4.10;;;;;;;15.63;100.00;100499.38;4897565;29;20029;-68
2023/06/01 02:45:36;;;;;;;7.53;4.20;;;;;;;16.05;100.00;100565.13;4897464;29;20423;-70
2023/06/01 02:48:02;;;;;;;8.85;4.50;;;;;;;16.09;100.00;100560.00;4897286;29;20029;-68
2023/06/01 02:50:28;;;;;;;7.10;4.30;;;;;;;16.15;100.00;100559.25;4897460;29;20032;-68
2023/06/01 02:52:53;;;;;;;7.80;4.07;;;;;;;16.24;99.43;100558.50;4896259;29;20112;-68
2023/06/01 02:55:18;;;;;;;6.78;3.90;;;;;;;16.23;99.26;100559.34;4896127;29;20033;-68
2023/06/01 02:57:44;;;;;;;12.93;4.60;;;;;;;16.14;100.00;100562.69;4897585;29;20025;-67
2023/06/01 03:00:15;;;;;;;8.98;4.22;;;;;;;15.70;100.00;100509.00;4897535;29;20120;-69
2023/06/01 03:02:42;;;;;;;7.50;4.30;;;;;;;16.08;100.00;100570.41;4897027;29;20036;-66
2023/06/01 03:05:08;;;;;;;11.05;4.80;;;;;;;15.93;100.00;100540.66;4897104;29;20476;-68
2023/06/01 03:07:34;;;;;;;9.95;4.05;;;;;;;15.84;100.00;100558.75;4897175;29;20504;-68
2023/06/01 03:09:59;;;;;;;9.43;4.32;;;;;;;15.88;100.00;100573.56;4896901;29;20084;-68
2023/06/01 03:12:25;;;;;;;9.30;4.55;;;;;;;15.54;100.00;100528.72;4897156;29;20032;-70
2023/06/01 03:14:50;;;;;;;7.18;4.30;;;;;;;15.81;100.00;100566.47;4897178;29;20499;-68
2023/06/01 03:17:16;;;;;;;10.50;4.63;;;;;;;15.53;100.00;100537.34;4897051;29;20028;-67
2023/06/01 03:19:41;;;;;;;11.23;4.78;;;;;;;15.68;100.00;100557.56;4896756;29;20080;-66
2023/06/01 03:22:07;;;;;;;11.82;4.20;;;;;;;15.31;100.00;100500.53;4897068;29;20449;-72
2023/06/01 03:24:32;;;;;;;9.57;4.40;;;;;;;15.75;100.00;100564.66;4896534;29;20115;-67
2023/06/01 03:26:58;;;;;;;10.10;4.60;;;;;;;15.78;100.00;100572.50;4896807;29;20115;-67
2023/06/01 03:29:23;;;;;;;7.57;4.28;;;;;;;15.80;100.00;100556.88;4895715;29;20064;-68
2023/06/01 03:31:49;;;;;;;11.07;4.50;;;;;;;15.85;100.00;100565.72;4896560;29;20072;-68
2023/06/01 03:34:14;;;;;;;7.80;4.72;;;;;;;15.74;100.00;100551.56;4896791;29;20037;-68
2023/06/01 03:36:40;;;;;;;10.60;5.10;;;;;;;15.71;100.00;100575.81;4896793;29;20028;-67
2023/06/01 03:39:08;;;;;;;7.18;4.60;;;;;;;15.41;100.00;100569.22;4898535;29;20043;-70
2023/06/01 03:41:34;;;;;;;11.60;4.65;;;;;;;15.08;100.00;100564.25;4916999;29;20032;-67
2023/06/01 03:44:00;;;;;;;8.77;4.60;;;;;;;15.40;100.00;100572.66;4934471;29;20035;-68
2023/06/01 03:46:25;;;;;;;7.93;4.57;;;;;;;15.36;100.00;100569.16;4934373;29;20044;-68
2023/06/01 03:48:51;;;;;;;11.07;5.07;;;;;;;15.49;100.00;100579.78;4917149;29;20028;-67
2023/06/01 03:51:17;;;;;;;8.25;4.65;;;;;;;15.55;100.00;100566.88;4917237;29;20101;-69
2023/06/01 03:53:43;;;;;;;7.70;4.45;;;;;;;15.75;100.00;100576.75;4934012;29;20773;-67
2023/06/01 03:56:08;;;;;;;10.30;4.72;;;;;;;15.42;100.00;100508.53;4915075;29;20047;-70
2023/06/01 03:58:33;;;;;;;10.45;5.63;;;;;;;15.94;100.00;100578.88;4914922;29;20032;-67
2023/06/01 04:01:00;;;;;;;12.18;4.95;;;;;;;16.11;100.00;100581.75;4913549;29;20040;-66
2023/06/01 04:03:26;;;;;;;8.95;4.68;;;;;;;16.16;100.00;100587.03;4910446;29;20552;-67
2023/06/01 04:05:58;;;;;;;8.95;5.70;;;;;;;16.18;100.00;100586.19;4914310;29;20119;-71
2023/06/01 04:08:24;;;;;;;13.88;5.07;;;;;;;15.99;99.43;100527.75;4912653;29;20044;-70
2023/06/01 04:10:50;;;;;;;12.77;5.00;;;;;;;16.40;99.43;100575.22;4897602;29;20052;-68
2023/06/01 04:13:15;;;;;;;12.27;5.00;;;;;;;16.54;100.00;100591.09;4914695;29;20042;-68
2023/06/01 04:15:41;;;;;;;8.68;5.45;;;;;;;16.58;99.70;100582.44;4914748;29;20035;-68
2023/06/01 04:18:07;;;;;;;11.15;6.00;;;;;;;16.50;100.00;100579.75;4914687;29;20028;-68
2023/06/01 04:20:32;;;;;;;8.85;5.47;;;;;;;16.60;100.00;100585.97;4914246;29;20032;-67
2023/06/01 04:22:58;;;;;;;10.07;5.40;;;;;;;16.73;100.00;100585.25;4914757;29;20035;-68
2023/06/01 04:25:24;;;;;;;10.13;5.38;;;;;;;16.71;100.00;100581.78;4914557;29;20525;-69
2023/06/01 04:27:54;;;;;;;9.25;5.28;;;;;;;16.69;100.00;100567.81;4914823;29;20460;-71
2023/06/01 04:30:20;;;;;;;8.25;4.78;;;;;;;16.78;100.00;100588.78;4914116;29;20059;-67
2023/06/01 04:32:47;;;;;;;8.43;5.10;;;;;;;16.58;100.00;100564.19;4914819;29;20102;-68
2023/06/01 04:35:14;;;;;;;8.10;5.90;;;;;;;16.01;100.00;100494.81;4913961;29;20036;-72
2023/06/01 04:37:41;;;;;;;10.43;6.32;;;;;;;16.18;100.00;100538.44;4897505;29;20067;-68
2023/06/01 04:40:09;;;;;;;10.60;5.68;;;;;;;16.52;100.00;100591.03;4909162;29;20095;-69
2023/06/01 04:42:42;;;;;;;9.95;5.90;;;;;;;16.54;100.00;100584.13;4905232;29;20080;-68
2023/06/01 04:45:11;;;;;;;8.73;6.22;;;;;;;16.30;100.00;100569.88;4905970;29;20025;-71
2023/06/01 04:47:39;;;;;;;8.30;5.72;;;;;;;16.41;100.00;100593.50;4905116;29;20057;-68
2023/06/01 04:50:09;;;;;;;11.98;6.32;;;;;;;16.26;100.00;100546.38;4913292;29;20054;-73
2023/06/01 04:52:36;;;;;;;8.85;5.78;;;;;;;16.56;100.00;100591.97;4914055;29;20032;-69
2023/06/01 04:55:04;;;;;;;9.20;6.28;;;;;;;16.60;100.00;100593.78;4914414;29;20406;-68
2023/06/01 04:57:31;;;;;;;8.82;6.32;;;;;;;16.67;100.00;100595.59;4914433;29;20091;-68
2023/06/01 04:59:56;;;;;;;11.00;6.72;;;;;;;16.69;100.00;100598.25;4914171;29;20507;-69
2023/06/01 05:02:23;;;;;;;10.23;6.97;;;;;;;16.80;100.00;100601.88;4912417;29;20064;-67
2023/06/01 05:04:49;;;;;;;9.30;6.68;;;;;;;16.93;100.00;100601.19;4910343;29;20024;-69
2023/06/01 05:07:14;;;;;;;9.10;5.88;;;;;;;16.71;100.00;100539.16;4906187;29;20047;-67
2023/06/01 05:09:39;;;;;;;10.38;6.53;;;;;;;17.29;100.00;100601.63;4879742;29;20111;-67
2023/06/01 05:12:06;;;;;;;10.68;6.47;;;;;;;17.49;100.00;100601.84;4913870;29;20028;-67
2023/06/01 05:14:31;;;;;;;9.35;5.82;;;;;;;17.52;100.00;100604.50;4913925;29;20032;-67
2023/06/01 05:16:57;;;;;;;8.55;6.38;;;;;;;17.58;100.00;100585.41;4917575;29;20158;-67
2023/06/01 05:19:22;;;;;;;10.75;6.32;;;;;;;17.85;100.00;100608.28;4919168;29;20036;-67
2023/06/01 05:22:08;;;;;;;9.30;6.63;;;;;;;17.98;100.00;100604.09;4918875;29;20039;-68
2023/06/01 05:24:33;;;;;;;8.65;6.63;;;;;;;18.01;100.00;100587.59;4861245;29;20074;-67
2023/06/01 05:26:59;;;;;;;9.73;5.90;;;;;;;18.22;100.00;100608.66;4853000;29;20050;-71
2023/06/01 05:29:24;;;;;;;9.52;6.38;;;;;;;18.27;100.00;100603.47;4851463;29;20566;-72
2023/06/01 05:31:50;;;;;;;11.50;6.97;;;;;;;18.47;100.00;100611.44;4852311;29;20040;-68
2023/06/01 05:34:16;;;;;;;9.77;6.60;;;;;;;18.59;100.00;100608.91;4840717;29;20045;-66
2023/06/01 05:36:41;;;;;;;10.77;6.88;;;;;;;18.50;100.00;100589.66;4853253;29;20026;-66
2023/06/01 05:39:07;;;;;;;11.80;6.90;;;;;;;18.30;100.00;100572.09;4851334;29;20477;-68
2023/06/01 05:41:32;;;;;;;11.98;7.03;;;;;;;18.52;100.00;100596.66;4852790;29;20040;-69
2023/06/01 05:43:58;;;;;;;8.55;6.82;;;;;;;18.62;100.00;100588.84;4850789;29;20458;-66
2023/06/01 05:46:24;;;;;;;9.40;6.57;;;;;;;18.78;100.00;100609.00;4851532;29;20045;-66
2023/06/01 05:48:50;;;;;;;10.65;6.03;;;;;;;18.87;100.00;100614.28;4851585;29;20056;-68
2023/06/01 05:51:17;;;;;;;10.93;6.57;;;;;;;19.04;100.00;100606.56;4851119;29;20052;-68
2023/06/01 05:53:42;;;;;;;13.55;7.13;;;;;;;19.12;100.00;100603.97;4854283;29;20105;-66
2023/06/01 05:56:08;;;;;;;12.48;6.57;;;;;;;18.89;100.00;100541.94;4899589;29;20554;-67
2023/06/01 05:58:33;;;;;;;10.57;6.60;;;;;;;19.42;100.00;100604.06;4917009;29;20028;-68
2023/06/01 06:00:59;;;;;;;10.55;6.80;;;;;;;19.46;100.00;100608.44;4907484;29;20506;-69
2023/06/01 06:03:24;;;;;;;21.60;6.75;;;;;;;19.57;100.00;100609.34;4916802;29;20056;-71
2023/06/01 06:05:49;;;;;;;11.55;6.53;;;;;;;19.57;100.00;100606.72;4917054;29;20508;-67
2023/06/01 06:08:15;;;;;;;171.73;25.13;;;;;;;19.73;100.00;100616.34;4908336;29;20376;-69
2023/06/01 06:10:41;;;;;;;8.45;6.53;;;;;;;19.55;100.00;100563.94;4908852;29;20103;-68
2023/06/01 06:13:06;;;;;;;11.45;7.10;;;;;;;19.87;100.00;100613.75;4906552;29;20111;-72
2023/06/01 06:15:32;;;;;;;10.13;6.20;;;;;;;19.98;100.00;100612.91;4908652;29;20031;-67
2023/06/01 06:17:57;;;;;;;10.32;6.20;;;;;;;20.01;100.00;100615.53;4907631;29;20033;-69
2023/06/01 06:20:23;;;;;;;10.50;5.93;;;;;;;19.91;95.23;100582.34;4906838;29;20028;-71
2023/06/01 06:22:52;;;;;;;10.15;6.07;;;;;;;20.20;93.09;100617.28;4902504;29;20039;-66
2023/06/01 06:25:18;;;;;;;7.57;5.53;;;;;;;20.13;95.36;100618.16;4900504;29;20029;-67
2023/06/01 06:27:45;;;;;;;7.57;5.57;;;;;;;20.08;96.28;100619.03;4905843;29;20400;-69
2023/06/01 06:30:11;;;;;;;8.65;5.40;;;;;;;20.09;92.53;100631.25;4908697;29;20159;-67
2023/06/01 06:32:36;;;;;;;9.50;5.60;;;;;;;20.02;91.53;100631.25;4896884;29;20043;-67
2023/06/01 06:35:02;;;;;;;7.80;5.18;;;;;;;19.48;92.03;100531.63;4908563;29;20493;-72
2023/06/01 06:37:28;;;;;;;9.30;5.38;;;;;;;20.14;89.42;100630.38;4907273;29;20024;-66
2023/06/01 06:39:54;;;;;;;9.57;4.90;;;;;;;20.00;88.70;100629.50;4906553;29;20020;-69
2023/06/01 06:42:19;;;;;;;7.75;5.30;;;;;;;20.21;86.31;100628.63;4906207;29;20056;-66
2023/06/01 13:05:07;;;;;;;6.22;3.10;;;;;;;29.44;41.92;100290.00;4912148;29;20111;-69
2023/06/01 13:07:32;;;;;;;5.72;3.05;;;;;;;29.01;42.39;100282.09;4914662;29;20096;-71
2023/06/01 13:09:58;;;;;;;6.63;3.00;;;;;;;28.84;44.36;100280.13;4914558;29;20060;-68
2023/06/01 13:12:24;;;;;;;6.15;3.42;;;;;;;28.73;45.60;100248.72;4914494;29;20047;-69
2023/06/01 13:14:49;;;;;;;9.35;3.55;;;;;;;29.27;42.74;100273.91;4914359;29;20032;-68
2023/06/01 13:17:15;;;;;;;9.75;3.88;;;;;;;29.66;40.89;100283.72;4914677;29;20050;-68
2023/06/01 13:19:40;;;;;;;6.53;3.42;;;;;;;29.62;42.74;100227.13;4914126;29;20404;-69
2023/06/01 13:22:06;;;;;;;5.35;3.70;;;;;;;29.34;41.77;100278.06;4914289;29;20475;-72
2023/06/01 13:24:31;;;;;;;7.25;3.85;;;;;;;29.13;43.82;100270.03;4914359;29;20521;-69
2023/06/01 13:26:57;;;;;;;7.07;3.45;;;;;;;29.04;46.10;100273.13;4914424;29;20025;-69
2023/06/01 13:29:22;;;;;;;6.32;3.42;;;;;;;28.81;40.23;100227.16;4914420;29;20028;-69
2023/06/01 13:31:48;;;;;;;7.15;3.75;;;;;;;29.00;43.83;100279.50;4914292;29;20517;-69
2023/06/01 13:34:13;;;;;;;4.97;3.40;;;;;;;29.32;44.40;100278.13;4914205;29;20036;-68
2023/06/01 13:36:38;;;;;;;6.47;3.60;;;;;;;28.64;41.15;100217.19;4865185;29;20443;-69
2023/06/01 13:39:04;;;;;;;5.47;3.88;;;;;;;28.93;38.53;100272.72;4917332;29;20079;-68
2023/06/01 13:41:29;;;;;;;7.90;3.75;;;;;;;28.97;44.44;100269.00;4918051;29;20024;-68
2023/06/01 13:43:55;;;;;;;6.55;3.72;;;;;;;29.07;42.85;100274.78;4917999;29;20064;-69
2023/06/01 14:57:58;;;;;;;7.50;3.40;;;;;;;28.41;43.52;100179.22;4898073;29;20062;-69
2023/06/01 15:00:24;;;;;;;9.45;4.18;;;;;;;28.72;43.66;100216.91;4896330;29;20452;-70
2023/06/01 15:02:49;;;;;;;7.45;3.55;;;;;;;28.61;44.49;100219.13;4897888;29;20483;-68
2023/06/01 15:05:15;;;;;;;6.35;3.75;;;;;;;28.33;43.68;100204.34;4897793;29;20044;-68
2023/06/01 15:07:41;;;;;;;5.38;3.60;;;;;;;27.99;44.22;100195.06;4897531;29;20495;-68
2023/06/01 15:10:07;;;;;;;6.10;3.28;;;;;;;27.94;47.90;100211.19;4897522;29;20037;-71
2023/06/01 15:12:33;;;;;;;6.72;3.70;;;;;;;27.89;46.23;100213.16;4897512;29;20032;-70
2023/06/01 15:14:58;;;;;;;6.07;3.30;;;;;;;27.54;44.16;100205.63;4897784;29;20047;-68
2023/06/01 15:17:23;;;;;;;7.40;3.65;;;;;;;27.66;48.14;100225.50;4897607;29;20554;-68
2023/06/01 15:19:49;;;;;;;7.28;3.90;;;;;;;27.92;43.12;100205.91;4897416;29;20032;-69
2023/06/01 15:22:14;;;;;;;7.40;3.50;;;;;;;28.25;44.37;100210.84;4897459;29;20161;-69
2023/06/01 15:24:40;;;;;;;7.22;3.63;;;;;;;28.48;43.89;100210.81;4897520;29;20072;-68
2023/06/01 15:27:07;;;;;;;5.95;3.47;;;;;;;28.27;45.33;100143.56;4897206;29;20149;-70
2023/06/01 15:29:33;;;;;;;6.25;3.33;;;;;;;28.81;43.22;100205.91;4897311;29;20036;-69
2023/06/01 15:31:59;;;;;;;6.13;3.80;;;;;;;28.29;43.41;100152.28;4897485;29;20115;-68
2023/06/01 15:34:24;;;;;;;8.38;3.67;;;;;;;28.40;44.85;100211.16;4897282;29;20115;-68
2023/06/01 15:36:50;;;;;;;7.70;4.07;;;;;;;28.35;45.19;100207.78;4897353;29;20033;-68
2023/06/01 15:39:16;;;;;;;7.55;4.10;;;;;;;28.51;43.25;100216.88;4897165;29;20124;-68
2023/06/01 15:41:42;;;;;;;5.55;3.85;;;;;;;28.42;43.83;100172.09;4896807;29;20036;-71
2023/06/01 15:44:07;;;;;;;5.13;3.75;;;;;;;28.74;43.89;100207.09;4896957;29;20039;-71
2023/06/01 15:46:33;;;;;;;9.73;3.97;;;;;;;28.66;42.72;100215.34;4897246;29;20029;-69
2023/06/01 15:48:59;;;;;;;7.57;3.88;;;;;;;28.70;44.18;100216.13;4896946;29;20172;-69
2023/06/01 15:51:25;;;;;;;4.57;3.42;;;;;;;28.34;43.99;100155.66;4896817;29;20410;-69
2023/06/01 15:53:50;;;;;;;5.68;3.53;;;;;;;28.60;45.51;100205.00;4896736;29;20443;-69
2023/06/01 15:56:16;;;;;;;6.78;3.42;;;;;;;28.35;43.44;100150.25;4902745;29;20062;-69
2023/06/01 15:58:42;;;;;;;6.15;3.70;;;;;;;28.69;43.15;100214.41;4915286;29;20035;-68
2023/06/01 16:01:08;;;;;;;6.18;3.88;;;;;;;28.67;43.81;100181.69;4915533;29;20411;-69
2023/06/01 16:03:34;;;;;;;6.40;3.42;;;;;;;28.74;43.98;100201.78;4915556;29;20120;-73
2023/06/01 16:05:59;;;;;;;6.30;3.55;;;;;;;28.78;45.14;100211.31;4915466;29;20473;-68
2023/06/01 16:08:25;;;;;;;7.28;3.63;;;;;;;28.65;44.44;100171.13;4915277;29;20043;-69
2023/06/01 16:10:50;;;;;;;7.38;3.75;;;;;;;28.61;44.11;100155.38;4898265;29;20032;-68
2023/06/01 16:13:16;;;;;;;6.90;3.80;;;;;;;28.92;43.17;100201.91;4915454;29;20034;-68
2023/06/01 16:15:42;;;;;;;14.00;3.63;;;;;;;29.00;42.60;100203.28;4915368;29;20020;-68
2023/06/01 16:18:07;;;;;;;7.80;3.78;;;;;;;29.02;43.30;100203.22;4915359;29;20043;-67
2023/06/01 16:20:32;;;;;;;7.70;3.72;;;;;;;29.03;43.90;100204.94;4915085;29;20036;-67
2023/06/01 16:22:58;;;;;;;6.43;3.63;;;;;;;29.02;43.80;100216.50;4915334;29;20043;-69
2023/06/01 16:25:25;;;;;;;8.05;3.80;;;;;;;28.63;43.86;100141.09;4915041;29;20027;-75
2023/06/01 16:27:55;;;;;;;5.95;3.50;;;;;;;28.99;44.10;100214.84;4914865;29;20511;-69
2023/06/01 16:30:20;;;;;;;6.88;3.63;;;;;;;28.95;44.88;100209.72;4915184;29;20028;-69
2023/06/01 16:32:46;;;;;;;7.10;3.95;;;;;;;28.93;45.77;100212.44;4911774;29;20043;-68
2023/06/01 16:35:12;;;;;;;9.23;4.00;;;;;;;28.92;44.71;100217.84;4895622;29;20068;-68
2023/06/01 16:37:37;;;;;;;9.30;3.80;;;;;;;28.29;47.26;100117.78;4911169;29;20036;-68
2023/06/01 16:40:03;;;;;;;8.32;4.22;;;;;;;28.83;47.92;100208.47;4914589;29;20408;-68
2023/06/01 16:42:29;;;;;;;10.68;3.83;;;;;;;28.76;47.59;100214.97;4896454;29;20127;-67
2023/06/01 16:44:54;;;;;;;12.30;4.07;;;;;;;28.54;47.02;100192.81;4914589;29;20032;-67
2023/06/01 16:47:19;;;;;;;9.70;3.90;;;;;;;28.55;47.92;100205.19;4914336;29;20036;-68
2023/06/01 16:49:45;;;;;;;7.82;3.45;;;;;;;28.50;48.15;100211.59;4914188;29;20028;-68
2023/06/01 16:52:10;;;;;;;8.25;3.53;;;;;;;28.40;50.31;100206.69;4914292;29;20154;-70
2023/06/01 16:54:36;;;;;;;9.50;3.60;;;;;;;28.33;52.20;100207.84;4914018;29;20020;-71
2023/06/01 16:57:01;;;;;;;8.43;3.70;;;;;;;28.30;53.05;100215.09;4914297;29;20052;-68
2023/06/01 16:59:26;;;;;;;7.22;3.80;;;;;;;28.24;53.75;100211.75;4890343;29;20051;-68
2023/06/01 17:01:52;;;;;;;10.68;3.72;;;;;;;28.07;54.46;100190.34;4892419;29;20411;-67
2023/06/01 17:04:18;;;;;;;8.55;3.80;;;;;;;28.17;53.83;100215.59;4892120;29;20037;-68
2023/06/01 17:06:43;;;;;;;12.18;4.10;;;;;;;28.14;53.65;100209.53;4892539;29;20048;-66
2023/06/01 17:09:12;;;;;;;11.07;4.43;;;;;;;28.10;53.91;100208.78;4892736;29;20056;-67
2023/06/01 17:11:37;;;;;;;11.18;3.58;;;;;;;28.04;54.79;100211.72;4891475;29;20085;-69
2023/06/01 17:14:03;;;;;;;14.85;4.30;;;;;;;27.95;55.05;100210.22;4896656;29;20116;-67
2023/06/01 17:16:28;;;;;;;16.70;4.90;;;;;;;27.92;55.47;100215.69;4888585;29;20231;-67
2023/06/01 17:18:53;;;;;;;12.60;4.10;;;;;;;27.84;55.75;100215.09;4891154;29;20036;-69
2023/06/01 17:21:19;;;;;;;12.35;3.90;;;;;;;27.69;55.02;100198.88;4890873;29;20153;-68
2023/06/01 17:23:44;;;;;;;17.10;4.10;;;;;;;27.43;55.34;100155.66;4889384;29;20024;-65
2023/06/01 17:26:10;;;;;;;16.42;4.57;;;;;;;27.75;54.78;100211.91;4889201;29;20036;-70
2023/06/01 17:28:36;;;;;;;16.50;4.72;;;;;;;27.74;54.15;100218.13;4889157;29;20417;-68
2023/06/01 17:31:02;;;;;;;12.93;4.90;;;;;;;27.66;54.02;100203.44;4900610;29;20059;-69
2023/06/01 17:33:27;;;;;;;14.77;4.32;;;;;;;27.60;52.74;100212.47;4904395;29;20020;-68
2023/06/01 17:35:53;;;;;;;17.90;4.70;;;;;;;27.23;52.82;100166.13;4892011;29;20888;-68
2023/06/01 17:38:19;;;;;;;11.88;4.43;;;;;;;27.27;53.95;100192.44;4901667;29;20032;-67
2023/06/01 17:40:45;;;;;;;14.00;4.25;;;;;;;27.12;54.10;100216.88;4905224;29;20059;-70
2023/06/01 17:43:10;;;;;;;10.95;4.65;;;;;;;26.73;56.47;100218.19;4902244;29;20077;-66
2023/06/01 17:45:36;;;;;;;10.98;4.45;;;;;;;26.42;57.78;100205.13;4894903;29;20119;-68
2023/06/01 17:48:01;;;;;;;12.68;4.72;;;;;;;26.22;58.83;100168.69;4910314;29;20082;-71
2023/06/01 17:50:27;;;;;;;8.15;4.63;;;;;;;25.82;62.27;100171.69;4912091;29;20053;-71
2023/06/01 17:52:52;;;;;;;12.65;4.40;;;;;;;25.92;65.49;100221.63;4913706;29;20036;-67
2023/06/01 17:55:17;;;;;;;13.90;5.07;;;;;;;25.79;66.92;100229.09;4914106;29;20032;-68
2023/06/01 17:57:43;;;;;;;9.23;4.60;;;;;;;25.28;68.35;100143.34;4909988;29;20475;-68
2023/06/01 18:00:09;;;;;;;13.15;5.20;;;;;;;25.42;70.10;100214.31;4913366;29;20504;-67
2023/06/01 18:02:34;;;;;;;13.68;8.32;;;;;;;25.28;71.59;100217.31;4910512;29;20456;-67
2023/06/01 18:05:00;;;;;;;15.57;7.60;;;;;;;25.03;72.39;100223.28;4895139;29;20052;-68
2023/06/01 18:07:28;;;;;;;8.27;5.18;;;;;;;24.44;71.41;100156.13;4894744;29;20039;-67
2023/06/01 18:09:53;;;;;;;8.65;4.80;;;;;;;24.83;69.76;100226.44;4895477;29;20049;-69
2023/06/01 18:12:19;;;;;;;8.43;4.75;;;;;;;24.74;69.25;100232.84;4895159;29;20032;-68
2023/06/01 18:14:46;;;;;;;8.57;4.63;;;;;;;24.72;69.13;100232.00;4895095;29;20483;-67
2023/06/01 18:17:12;;;;;;;10.32;4.25;;;;;;;24.54;69.20;100235.94;4880337;29;20040;-68
2023/06/01 18:19:39;;;;;;;9.13;4.18;;;;;;;24.41;70.00;100216.88;4913701;29;20406;-68
2023/06/01 18:22:05;;;;;;;6.05;4.32;;;;;;;24.58;71.56;100237.59;4911357;29;20039;-70
2023/06/01 18:24:30;;;;;;;8.48;5.00;;;;;;;24.08;70.90;100184.31;4907101;29;20051;-69
2023/06/01 18:26:55;;;;;;;9.75;4.22;;;;;;;24.04;70.76;100205.47;4912643;29;20031;-71
2023/06/01 18:29:21;;;;;;;11.40;4.70;;;;;;;24.25;69.52;100242.78;4916857;29;20028;-70
2023/06/01 18:31:46;;;;;;;7.25;4.90;;;;;;;24.28;69.65;100249.78;4916748;29;20154;-72
2023/06/01 18:34:12;;;;;;;9.82;4.97;;;;;;;24.30;69.98;100251.47;4916632;29;20036;-71
2023/06/01 18:36:37;;;;;;;10.88;4.65;;;;;;;24.31;70.30;100241.75;4913447;29;20027;-71
2023/06/01 18:39:03;;;;;;;8.40;4.80;;;;;;;24.18;71.12;100228.00;4915292;29;20017;-70
2023/06/01 18:41:28;;;;;;;12.55;4.70;;;;;;;24.24;72.29;100267.44;4916176;29;20167;-70
2023/06/01 18:43:55;;;;;;;15.23;4.93;;;;;;;23.83;73.03;100219.97;4916329;29;20028;-68
2023/06/01 18:46:21;;;;;;;12.63;4.60;;;;;;;24.03;72.48;100267.00;4914157;29;20028;-70
2023/06/01 18:48:46;;;;;;;10.90;4.57;;;;;;;24.05;72.66;100275.75;4916539;29;20095;-68